createdAt,value
2022-08-28T00:00:42.041Z,20.01
2022-08-28T00:10:50.181Z,19.98
2022-08-28T00:20:56.335Z,19.92
2022-08-28T00:51:39.195Z,19.62
2022-08-28T01:01:48.002Z,19.61
2022-08-28T01:11:56.893Z,19.54
2022-08-28T01:22:03.872Z,19.52
2022-08-28T01:32:11.638Z,19.47
2022-08-28T01:42:18.807Z,19.34
2022-08-28T01:52:26.651Z,19.25
2022-08-28T02:02:33.953Z,19.36
2022-08-28T02:12:41.971Z,19.23
2022-08-28T02:22:49.409Z,19.18
2022-08-28T02:32:56.980Z,19.05
2022-08-28T02:43:04.532Z,18.98
2022-08-28T02:53:11.481Z,18.89
2022-08-28T03:03:18.761Z,18.78
2022-08-28T03:13:26.972Z,18.72
2022-08-28T03:23:35.087Z,18.67
2022-08-28T03:33:43.217Z,18.73
2022-08-28T03:43:51.308Z,18.83
2022-08-28T03:53:58.974Z,18.86
2022-08-28T04:04:05.303Z,18.87
2022-08-28T04:14:12.549Z,18.88
2022-08-28T04:24:20.242Z,18.89
2022-08-28T04:34:27.515Z,19.04
2022-08-28T04:44:34.958Z,19.28
2022-08-28T04:54:42.111Z,19.42
2022-08-28T05:04:49.662Z,19.82
2022-08-28T05:14:56.768Z,20.04
2022-08-28T05:25:04.628Z,19.87
2022-08-28T05:35:12.736Z,19.74
2022-08-28T05:45:23.017Z,19.72
2022-08-28T05:55:30.696Z,19.94
2022-08-28T06:15:43.461Z,20.41
2022-08-28T06:25:52.620Z,21.31
2022-08-28T06:36:00.503Z,21.56
2022-08-28T06:46:07.998Z,21.66
2022-08-28T06:56:26.026Z,21.78
2022-08-28T07:06:32.483Z,22.04
2022-08-28T07:16:40.580Z,22.41
2022-08-28T07:26:49.157Z,22.95
2022-08-28T07:36:58.439Z,23.42
2022-08-28T07:47:18.952Z,23.79
2022-08-28T07:57:32.284Z,24.33
2022-08-28T08:07:39.751Z,24.79
2022-08-28T08:17:49.491Z,25.29
2022-08-28T08:27:56.719Z,25.94
2022-08-28T08:38:04.131Z,26.67
2022-08-28T08:48:28.223Z,27.76
2022-08-28T08:58:38.053Z,28.12
2022-08-28T09:08:50.904Z,27.70
2022-08-28T09:18:58.589Z,28.08
2022-08-28T09:29:04.246Z,28.50
2022-08-28T09:39:12.943Z,28.41
2022-08-28T09:49:24.947Z,28.63
2022-08-28T09:59:33.471Z,28.65
2022-08-28T10:19:45.496Z,28.78
2022-08-28T10:29:50.980Z,28.60
2022-08-28T10:39:55.742Z,28.32
2022-08-28T10:50:03.818Z,28.32
2022-08-28T11:00:15.487Z,28.17
2022-08-28T11:10:25.679Z,28.15
2022-08-28T11:20:31.612Z,27.82
2022-08-28T11:30:39.189Z,27.33
2022-08-28T11:40:56.838Z,27.03
2022-08-28T11:51:07.427Z,26.19
2022-08-28T12:01:27.047Z,25.25
2022-08-28T12:11:53.119Z,24.65
2022-08-28T12:22:05.509Z,24.22
2022-08-28T12:32:30.584Z,23.79
2022-08-28T12:42:41.042Z,23.34
2022-08-28T12:52:49.262Z,23.26
2022-08-28T13:02:57.073Z,23.62
2022-08-28T13:13:08.414Z,23.83
2022-08-28T13:23:29.727Z,23.69
2022-08-28T13:33:36.952Z,23.58
2022-08-28T13:43:43.830Z,23.58
2022-08-28T13:53:51.187Z,23.66
2022-08-28T14:03:59.680Z,23.44
2022-08-28T14:14:05.606Z,23.20
2022-08-28T14:24:13.330Z,23.05
2022-08-28T14:34:17.836Z,22.78
2022-08-28T14:44:24.699Z,22.73
2022-08-28T14:54:31.971Z,22.52
2022-08-28T15:04:39.350Z,22.34
2022-08-28T15:14:55.015Z,22.40
2022-08-28T15:25:03.523Z,22.34
2022-08-28T15:35:12.112Z,22.47
2022-08-28T15:45:20.387Z,22.59
2022-08-28T16:05:33.569Z,22.86
2022-08-28T16:15:43.939Z,22.93
2022-08-28T16:25:48.701Z,22.71
2022-08-28T16:56:08.552Z,21.84
2022-08-28T17:06:17.160Z,21.63
2022-08-28T17:16:23.968Z,21.56
2022-08-28T17:26:31.487Z,21.39
2022-08-28T17:36:40.132Z,21.14
2022-08-28T17:46:46.622Z,20.95
2022-08-28T17:56:54.913Z,20.88
2022-08-28T18:07:02.056Z,20.76
2022-08-28T18:17:09.962Z,20.75
2022-08-28T18:27:15.912Z,20.66
2022-08-28T18:37:23.797Z,20.56
2022-08-28T18:47:31.083Z,20.52
2022-08-28T18:57:38.284Z,20.50
2022-08-28T19:07:45.635Z,20.48
2022-08-28T19:17:53.342Z,20.47
2022-08-28T19:28:01.359Z,20.46
2022-08-28T19:38:06.989Z,20.41
2022-08-28T19:48:14.825Z,20.42
2022-08-28T19:58:22.431Z,20.41
2022-08-28T20:08:29.195Z,20.36
2022-08-28T20:18:36.400Z,20.31
2022-08-28T20:28:44.223Z,20.27
2022-08-28T20:38:51.479Z,20.21
2022-08-28T20:48:58.642Z,20.12
2022-08-28T20:59:05.779Z,20.05
2022-08-28T21:09:13.479Z,19.96
2022-08-28T21:19:20.673Z,20.00
2022-08-28T21:29:28.096Z,19.96
2022-08-28T21:39:35.912Z,19.93
2022-08-28T21:49:43.092Z,19.91
2022-08-28T21:59:50.269Z,19.86
2022-08-28T22:09:57.818Z,19.76
2022-08-28T22:20:05.690Z,19.62
2022-08-28T22:30:12.146Z,19.49
2022-08-28T22:40:20.351Z,19.29
2022-08-28T22:50:26.466Z,19.19
2022-08-28T23:00:34.454Z,19.06
2022-08-28T23:10:58.663Z,19.04
2022-08-28T23:21:07.991Z,19.01
2022-08-28T23:31:15.591Z,19.02
2022-08-28T23:41:22.905Z,19.00
2022-08-28T23:51:31.292Z,18.94
